createdAt,value
2022-08-25T00:00:20.523Z,53.63
2022-08-25T00:02:55.233Z,53.56
2022-08-25T00:05:29.170Z,53.96
2022-08-25T00:07:59.290Z,53.85
2022-08-25T00:10:27.598Z,54.05
2022-08-25T00:12:55.947Z,54.44
2022-08-25T00:15:24.269Z,54.28
2022-08-25T00:17:52.578Z,54.53
2022-08-25T00:20:21.134Z,54.61
2022-08-25T00:22:49.855Z,54.89
2022-08-25T00:25:20.392Z,54.64
2022-08-25T00:27:48.571Z,54.72
2022-08-25T00:30:17.339Z,55.17
2022-08-25T00:32:48.919Z,54.85
2022-08-25T00:35:24.641Z,55.29
2022-08-25T00:37:52.724Z,54.94
2022-08-25T00:40:23.488Z,54.90
2022-08-25T00:42:51.703Z,54.84
2022-08-25T00:45:20.440Z,54.98
2022-08-25T00:47:48.767Z,55.08
2022-08-25T00:50:18.282Z,54.85
2022-08-25T00:52:51.939Z,55.03
2022-08-25T00:55:26.010Z,55.68
2022-08-25T00:58:01.087Z,55.17
2022-08-25T01:00:34.146Z,55.63
2022-08-25T01:03:02.576Z,55.58
2022-08-25T01:05:31.665Z,55.52
2022-08-25T01:08:06.654Z,55.36
2022-08-25T01:10:41.288Z,55.67
2022-08-25T01:13:16.726Z,56.30
2022-08-25T01:15:46.356Z,56.04
2022-08-25T01:18:15.773Z,56.05
2022-08-25T01:20:44.197Z,56.64
2022-08-25T01:23:13.691Z,56.51
2022-08-25T01:25:52.522Z,56.64
2022-08-25T01:28:22.050Z,56.98
2022-08-25T01:30:50.491Z,56.98
2022-08-25T01:33:18.617Z,57.82
2022-08-25T01:35:47.408Z,57.38
2022-08-25T01:38:17.717Z,57.68
2022-08-25T01:40:45.947Z,57.06
2022-08-25T01:43:23.196Z,57.13
2022-08-25T01:45:51.336Z,57.29
2022-08-25T01:48:20.506Z,56.98
2022-08-25T01:50:48.545Z,56.90
2022-08-25T01:53:27.871Z,56.83
2022-08-25T01:56:02.762Z,56.56
2022-08-25T01:58:35.066Z,56.55
2022-08-25T02:01:08.093Z,56.35
2022-08-25T02:03:42.127Z,56.27
2022-08-25T02:06:13.813Z,56.28
2022-08-25T02:08:43.733Z,56.39
2022-08-25T02:11:13.715Z,56.52
2022-08-25T02:13:43.473Z,56.60
2022-08-25T02:16:20.611Z,56.14
2022-08-25T02:18:49.081Z,56.07
2022-08-25T02:21:17.503Z,56.40
2022-08-25T02:23:46.968Z,57.08
2022-08-25T02:26:16.796Z,57.09
2022-08-25T02:28:47.325Z,57.26
2022-08-25T02:31:16.511Z,57.70
2022-08-25T02:33:44.911Z,57.60
2022-08-25T02:36:13.625Z,57.97
2022-08-25T02:38:41.770Z,57.91
2022-08-25T02:41:14.188Z,57.63
2022-08-25T02:43:44.035Z,57.98
2022-08-25T02:46:13.816Z,58.18
2022-08-25T02:48:42.546Z,58.34
2022-08-25T02:51:12.324Z,58.99
2022-08-25T02:53:42.856Z,58.99
2022-08-25T02:56:14.845Z,59.07
2022-08-25T02:58:44.034Z,59.41
2022-08-25T03:01:12.505Z,59.42
2022-08-25T03:03:43.507Z,59.26
2022-08-25T03:06:13.513Z,59.41
2022-08-25T03:08:42.575Z,59.34
2022-08-25T03:11:12.894Z,59.65
2022-08-25T03:13:41.153Z,59.47
2022-08-25T03:16:11.405Z,59.23
2022-08-25T03:18:43.146Z,59.36
2022-08-25T03:21:13.387Z,59.75
2022-08-25T03:23:44.591Z,60.16
2022-08-25T03:26:31.717Z,59.99
2022-08-25T03:29:05.019Z,60.43
2022-08-25T03:31:34.194Z,60.49
2022-08-25T03:34:02.885Z,60.78
2022-08-25T03:36:31.127Z,60.73
2022-08-25T03:39:00.558Z,60.82
2022-08-25T03:41:32.625Z,60.55
2022-08-25T03:44:02.160Z,60.79
2022-08-25T03:46:33.492Z,60.56
2022-08-25T03:49:03.932Z,60.34
2022-08-25T03:51:35.990Z,60.52
2022-08-25T03:54:05.414Z,60.52
2022-08-25T03:56:35.546Z,60.66
2022-08-25T03:59:06.058Z,60.66
2022-08-25T04:01:35.353Z,60.33
2022-08-25T04:04:03.842Z,60.63
2022-08-25T04:06:32.097Z,60.64
2022-08-25T04:09:00.228Z,60.77
2022-08-25T04:11:29.265Z,60.97
2022-08-25T04:14:02.307Z,60.83
2022-08-25T04:16:35.090Z,60.85
2022-08-25T04:19:07.871Z,61.08
2022-08-25T04:21:36.797Z,61.03
2022-08-25T04:24:06.391Z,60.67
2022-08-25T04:26:38.077Z,60.81
2022-08-25T04:29:10.226Z,61.03
2022-08-25T04:31:41.785Z,61.56
2022-08-25T04:34:28.568Z,61.08
2022-08-25T04:36:58.465Z,61.25
2022-08-25T04:39:26.549Z,61.30
2022-08-25T04:41:54.583Z,61.51
2022-08-25T04:44:24.010Z,61.48
2022-08-25T04:46:52.084Z,61.32
2022-08-25T04:49:20.286Z,61.30
2022-08-25T04:51:48.341Z,61.73
2022-08-25T04:54:21.569Z,61.59
2022-08-25T04:56:50.679Z,61.40
2022-08-25T04:59:29.943Z,60.99
2022-08-25T05:02:02.388Z,61.29
2022-08-25T05:04:32.523Z,60.91
2022-08-25T05:07:01.330Z,61.32
2022-08-25T05:09:32.417Z,61.57
2022-08-25T05:12:02.374Z,61.39
2022-08-25T05:14:33.382Z,61.48
2022-08-25T05:17:02.045Z,61.67
2022-08-25T05:19:30.239Z,61.42
2022-08-25T05:21:58.394Z,61.31
2022-08-25T05:24:26.956Z,61.41
2022-08-25T05:26:55.275Z,61.50
2022-08-25T05:29:23.546Z,61.70
2022-08-25T05:31:54.009Z,61.51
2022-08-25T05:34:22.384Z,61.75
2022-08-25T05:36:51.492Z,61.70
2022-08-25T05:39:19.723Z,61.68
2022-08-25T05:41:47.823Z,61.72
2022-08-25T05:44:20.928Z,61.66
2022-08-25T05:46:52.523Z,61.36
2022-08-25T05:49:20.836Z,61.10
2022-08-25T05:51:48.987Z,61.23
2022-08-25T05:54:17.287Z,61.43
2022-08-25T05:56:46.325Z,61.38
2022-08-25T05:59:14.463Z,61.05
2022-08-25T06:02:00.313Z,61.22
2022-08-25T06:04:29.787Z,61.15
2022-08-25T06:06:57.887Z,61.35
2022-08-25T06:09:26.519Z,61.46
2022-08-25T06:11:55.430Z,61.27
2022-08-25T06:14:24.893Z,61.29
2022-08-25T06:16:53.465Z,61.03
2022-08-25T06:19:23.354Z,61.33
2022-08-25T06:21:55.765Z,61.61
2022-08-25T06:24:24.540Z,61.38
2022-08-25T06:26:52.727Z,61.47
2022-08-25T06:29:21.304Z,61.54
2022-08-25T06:31:50.277Z,60.92
2022-08-25T06:34:19.521Z,60.90
2022-08-25T06:36:53.537Z,60.63
2022-08-25T06:39:21.881Z,60.74
2022-08-25T06:41:53.706Z,60.65
2022-08-25T06:44:22.279Z,60.35
2022-08-25T06:46:51.497Z,60.22
2022-08-25T06:49:19.713Z,60.40
2022-08-25T06:51:48.001Z,60.09
2022-08-25T06:54:17.642Z,60.00
2022-08-25T06:56:45.707Z,59.73
2022-08-25T06:59:14.027Z,59.35
2022-08-25T07:01:42.266Z,59.70
2022-08-25T07:04:13.191Z,59.62
2022-08-25T07:06:42.820Z,59.38
2022-08-25T07:09:13.245Z,58.34
2022-08-25T07:11:45.232Z,58.69
2022-08-25T07:14:16.841Z,58.46
2022-08-25T07:16:49.394Z,57.82
2022-08-25T07:19:21.124Z,57.23
2022-08-25T07:21:54.144Z,56.64
2022-08-25T07:24:23.315Z,57.23
2022-08-25T07:26:53.142Z,57.15
2022-08-25T07:29:31.879Z,56.89
2022-08-25T07:32:00.767Z,57.07
2022-08-25T07:34:52.367Z,57.09
2022-08-25T07:40:14.867Z,56.13
2022-08-25T07:42:44.972Z,56.24
2022-08-25T07:45:15.484Z,55.38
2022-08-25T07:47:45.476Z,55.44
2022-08-25T07:50:14.747Z,55.30
2022-08-25T07:52:43.307Z,55.27
2022-08-25T07:55:12.033Z,54.84
2022-08-25T07:57:49.901Z,55.26
2022-08-25T08:00:27.511Z,55.26
2022-08-25T08:02:56.066Z,54.98
2022-08-25T08:05:25.142Z,54.59
2022-08-25T08:07:53.927Z,54.67
2022-08-25T08:13:17.775Z,53.84
2022-08-25T08:15:47.395Z,53.84
2022-08-25T08:18:16.296Z,53.95
2022-08-25T08:20:46.001Z,54.09
2022-08-25T08:23:38.356Z,53.55
2022-08-25T08:26:06.889Z,53.64
2022-08-25T08:28:36.354Z,53.77
2022-08-25T08:31:05.703Z,52.68
2022-08-25T08:33:40.757Z,52.23
2022-08-25T08:36:12.536Z,51.48
2022-08-25T08:38:42.703Z,50.85
2022-08-25T08:42:09.661Z,50.09
2022-08-25T08:44:57.069Z,49.47
2022-08-25T08:47:38.315Z,48.97
2022-08-25T08:50:23.931Z,48.26
2022-08-25T08:53:03.488Z,47.83
2022-08-25T08:55:38.123Z,48.18
2022-08-25T08:58:10.392Z,47.50
2022-08-25T09:00:52.074Z,47.07
2022-08-25T09:03:34.651Z,46.54
2022-08-25T09:06:08.764Z,46.51
2022-08-25T09:08:44.492Z,46.62
2022-08-25T09:11:24.082Z,46.35
2022-08-25T09:14:13.539Z,46.77
2022-08-25T09:16:56.144Z,46.75
2022-08-25T09:20:00.106Z,46.13
2022-08-25T09:22:46.826Z,46.10
2022-08-25T09:25:48.799Z,45.55
2022-08-25T09:28:22.095Z,45.43
2022-08-25T09:30:59.084Z,44.45
2022-08-25T09:33:33.660Z,43.03
2022-08-25T09:36:08.823Z,42.65
2022-08-25T09:38:38.361Z,43.36
2022-08-25T09:41:06.966Z,42.99
2022-08-25T09:43:37.952Z,42.90
2022-08-25T09:46:13.975Z,42.96
2022-08-25T09:48:56.620Z,42.23
2022-08-25T09:51:28.659Z,42.94
2022-08-25T09:54:03.499Z,42.16
2022-08-25T09:56:51.237Z,41.73
2022-08-25T09:59:34.297Z,40.97
2022-08-25T10:02:06.727Z,40.81
2022-08-25T10:04:40.010Z,39.89
2022-08-25T10:07:26.861Z,39.96
2022-08-25T10:09:59.869Z,40.91
2022-08-25T10:12:37.624Z,40.88
2022-08-25T10:15:29.955Z,40.41
2022-08-25T10:18:21.546Z,40.49
2022-08-25T10:21:09.369Z,40.19
2022-08-25T10:23:44.770Z,40.64
2022-08-25T10:26:30.341Z,40.07
2022-08-25T10:29:18.193Z,40.20
2022-08-25T10:31:56.011Z,39.89
2022-08-25T10:34:38.065Z,39.29
2022-08-25T10:37:19.714Z,38.31
2022-08-25T10:39:58.966Z,38.32
2022-08-25T10:42:37.633Z,39.26
2022-08-25T10:45:39.255Z,38.65
2022-08-25T10:48:36.771Z,38.51
2022-08-25T10:51:24.876Z,38.98
2022-08-25T10:54:03.631Z,39.27
2022-08-25T10:56:40.956Z,38.49
2022-08-25T10:59:31.602Z,37.60
2022-08-25T11:02:33.404Z,37.54
2022-08-25T11:05:08.040Z,37.57
2022-08-25T11:07:42.494Z,37.46
2022-08-25T11:10:20.053Z,37.22
2022-08-25T11:12:55.784Z,36.60
2022-08-25T11:15:29.828Z,36.19
2022-08-25T11:18:03.992Z,36.24
2022-08-25T11:20:39.502Z,35.75
2022-08-25T11:23:15.883Z,35.86
2022-08-25T11:25:48.886Z,36.52
2022-08-25T11:28:27.289Z,35.95
2022-08-25T11:30:59.952Z,35.08
2022-08-25T11:33:31.678Z,35.62
2022-08-25T11:36:07.004Z,35.89
2022-08-25T11:38:53.963Z,35.65
2022-08-25T11:41:34.123Z,36.22
2022-08-25T11:44:50.125Z,37.47
2022-08-25T11:47:48.166Z,38.52
2022-08-25T11:50:31.575Z,36.76
2022-08-25T11:53:26.560Z,36.34
2022-08-25T11:55:58.833Z,36.58
2022-08-25T11:58:49.697Z,36.09
2022-08-25T12:02:28.914Z,35.88
2022-08-25T12:04:57.642Z,36.33
2022-08-25T12:07:30.961Z,35.66
2022-08-25T12:10:20.934Z,35.09
2022-08-25T12:13:21.937Z,34.50
2022-08-25T12:16:02.416Z,35.38
2022-08-25T12:18:45.988Z,35.53
2022-08-25T12:21:33.610Z,35.99
2022-08-25T12:24:15.300Z,35.44
2022-08-25T12:26:59.094Z,36.90
2022-08-25T12:29:34.074Z,37.68
2022-08-25T12:32:29.247Z,37.98
2022-08-25T12:35:29.924Z,37.66
2022-08-25T12:38:06.410Z,38.18
2022-08-25T12:40:40.365Z,37.82
2022-08-25T12:43:14.155Z,38.05
2022-08-25T12:45:50.102Z,38.62
2022-08-25T12:49:05.318Z,38.66
2022-08-25T12:51:54.969Z,38.37
2022-08-25T12:54:48.332Z,37.50
2022-08-25T12:57:41.070Z,37.36
2022-08-25T13:00:20.148Z,37.80
2022-08-25T13:06:41.097Z,37.01
2022-08-25T13:10:04.205Z,37.18
2022-08-25T13:12:40.118Z,37.39
2022-08-25T13:15:14.701Z,37.03
2022-08-25T13:17:43.765Z,37.42
2022-08-25T13:20:23.710Z,36.91
2022-08-25T13:23:00.272Z,36.37
2022-08-25T13:25:33.223Z,37.00
2022-08-25T13:28:06.151Z,36.88
2022-08-25T13:30:39.168Z,36.13
2022-08-25T13:33:21.943Z,34.91
2022-08-25T13:36:17.606Z,35.52
2022-08-25T13:38:50.362Z,35.74
2022-08-25T13:41:29.602Z,36.25
2022-08-25T13:44:02.541Z,35.53
2022-08-25T13:46:31.786Z,35.24
2022-08-25T13:49:11.189Z,36.50
2022-08-25T13:51:51.737Z,36.02
2022-08-25T13:54:31.147Z,36.12
2022-08-25T13:57:11.314Z,35.56
2022-08-25T13:59:42.720Z,35.91
2022-08-25T14:02:19.435Z,35.59
2022-08-25T14:04:51.234Z,35.63
2022-08-25T14:07:33.880Z,35.52
2022-08-25T14:10:08.029Z,35.34
2022-08-25T14:12:44.847Z,34.82
2022-08-25T14:15:29.615Z,34.89
2022-08-25T14:18:07.822Z,34.60
2022-08-25T14:20:38.879Z,35.08
2022-08-25T14:23:19.076Z,35.37
2022-08-25T14:25:51.017Z,34.87
2022-08-25T14:28:22.835Z,35.35
2022-08-25T14:30:56.825Z,35.71
2022-08-25T14:33:29.660Z,35.16
2022-08-25T14:36:02.593Z,35.98
2022-08-25T14:38:30.660Z,35.56
2022-08-25T14:41:00.506Z,36.09
2022-08-25T14:43:31.727Z,36.48
2022-08-25T14:46:03.507Z,35.86
2022-08-25T14:48:40.182Z,35.88
2022-08-25T14:51:15.313Z,36.73
2022-08-25T14:53:44.861Z,36.42
2022-08-25T14:56:14.461Z,36.56
2022-08-25T14:58:51.140Z,37.06
2022-08-25T15:01:29.306Z,36.95
2022-08-25T15:04:04.020Z,35.83
2022-08-25T15:06:32.816Z,36.21
2022-08-25T15:09:11.718Z,36.29
2022-08-25T15:11:45.551Z,36.57
2022-08-25T15:14:17.506Z,36.46
2022-08-25T15:16:50.094Z,36.83
2022-08-25T15:19:22.738Z,37.08
2022-08-25T15:21:52.382Z,37.30
2022-08-25T15:24:22.561Z,36.83
2022-08-25T15:26:55.270Z,36.96
2022-08-25T15:29:24.305Z,36.73
2022-08-25T15:31:52.548Z,36.60
2022-08-25T15:34:20.957Z,36.43
2022-08-25T15:36:49.155Z,36.68
2022-08-25T15:39:19.107Z,37.51
2022-08-25T15:41:49.509Z,37.83
2022-08-25T15:44:20.147Z,36.77
2022-08-25T15:46:49.800Z,36.51
2022-08-25T15:49:20.912Z,37.30
2022-08-25T15:51:52.805Z,37.42
2022-08-25T15:54:26.806Z,37.41
2022-08-25T15:56:56.138Z,36.76
2022-08-25T15:59:27.197Z,36.87
2022-08-25T16:01:56.332Z,37.26
2022-08-25T16:04:27.434Z,36.96
2022-08-25T16:06:56.221Z,37.03
2022-08-25T16:09:24.963Z,36.98
2022-08-25T16:11:56.948Z,36.38
2022-08-25T16:14:28.033Z,36.65
2022-08-25T16:16:58.343Z,36.60
2022-08-25T16:19:27.071Z,36.72
2022-08-25T16:21:55.117Z,37.40
2022-08-25T16:24:23.250Z,37.34
2022-08-25T16:26:51.968Z,37.20
2022-08-25T16:29:21.083Z,37.20
2022-08-25T16:31:53.331Z,36.65
2022-08-25T16:34:24.699Z,37.42
2022-08-25T16:36:56.596Z,36.98
2022-08-25T16:39:25.494Z,37.37
2022-08-25T16:41:53.805Z,37.28
2022-08-25T16:44:23.105Z,36.94
2022-08-25T16:46:54.388Z,36.77
2022-08-25T16:49:24.389Z,37.50
2022-08-25T16:51:57.296Z,37.13
2022-08-25T16:54:44.437Z,37.24
2022-08-25T16:57:12.972Z,37.80
2022-08-25T16:59:43.754Z,37.81
2022-08-25T17:02:13.751Z,38.36
2022-08-25T17:04:42.003Z,38.55
2022-08-25T17:07:10.578Z,38.50
2022-08-25T17:09:38.645Z,38.10
2022-08-25T17:12:09.042Z,38.64
2022-08-25T17:14:37.374Z,38.67
2022-08-25T17:17:07.057Z,38.45
2022-08-25T17:19:37.184Z,38.65
2022-08-25T17:22:08.033Z,37.94
2022-08-25T17:24:37.358Z,38.37
2022-08-25T17:27:09.193Z,38.21
2022-08-25T17:29:37.791Z,37.99
2022-08-25T17:32:06.903Z,37.92
2022-08-25T17:34:37.520Z,38.08
2022-08-25T17:37:06.766Z,38.61
2022-08-25T17:39:34.841Z,38.95
2022-08-25T17:42:03.458Z,39.08
2022-08-25T17:44:31.597Z,38.94
2022-08-25T17:46:59.927Z,39.01
2022-08-25T17:49:28.457Z,38.79
2022-08-25T17:51:58.144Z,39.32
2022-08-25T17:54:26.302Z,38.93
2022-08-25T17:56:56.072Z,38.92
2022-08-25T17:59:24.371Z,39.43
2022-08-25T18:01:55.488Z,38.71
2022-08-25T18:04:24.099Z,39.33
2022-08-25T18:06:59.161Z,39.13
2022-08-25T18:09:28.437Z,39.74
2022-08-25T18:11:56.587Z,39.25
2022-08-25T18:14:25.573Z,39.94
2022-08-25T18:16:55.137Z,40.26
2022-08-25T18:19:23.479Z,41.37
2022-08-25T18:21:51.873Z,40.89
2022-08-25T18:24:23.674Z,41.66
2022-08-25T18:26:52.036Z,42.68
2022-08-25T18:29:20.684Z,43.01
2022-08-25T18:31:49.023Z,43.25
2022-08-25T18:34:17.251Z,43.22
2022-08-25T18:36:46.951Z,43.12
2022-08-25T18:39:34.838Z,43.08
2022-08-25T18:42:06.338Z,43.04
2022-08-25T18:44:36.147Z,43.78
2022-08-25T18:47:07.688Z,43.75
2022-08-25T18:49:37.064Z,43.90
2022-08-25T18:52:06.689Z,44.11
2022-08-25T18:54:36.353Z,44.47
2022-08-25T18:57:08.239Z,44.82
2022-08-25T18:59:37.532Z,44.59
2022-08-25T19:02:06.558Z,45.08
2022-08-25T19:04:34.969Z,44.82
2022-08-25T19:07:03.332Z,44.47
2022-08-25T19:09:32.800Z,45.03
2022-08-25T19:12:01.374Z,45.41
2022-08-25T19:14:30.850Z,45.48
2022-08-25T19:16:59.127Z,45.79
2022-08-25T19:19:27.753Z,45.94
2022-08-25T19:21:55.943Z,45.85
2022-08-25T19:24:24.035Z,46.13
2022-08-25T19:26:54.645Z,46.40
2022-08-25T19:29:24.387Z,46.08
2022-08-25T19:31:54.321Z,45.83
2022-08-25T19:34:28.306Z,45.42
2022-08-25T19:37:01.444Z,45.55
2022-08-25T19:39:30.601Z,45.63
2022-08-25T19:41:59.258Z,45.54
2022-08-25T19:44:28.078Z,45.92
2022-08-25T19:46:58.756Z,45.83
2022-08-25T19:49:33.405Z,45.75
2022-08-25T19:52:04.689Z,46.47
2022-08-25T19:54:35.982Z,46.57
2022-08-25T19:57:06.614Z,46.49
2022-08-25T19:59:42.843Z,47.25
2022-08-25T20:02:17.814Z,46.70
2022-08-25T20:04:49.570Z,46.67
2022-08-25T20:07:21.186Z,47.58
2022-08-25T20:09:50.011Z,47.37
2022-08-25T20:12:20.527Z,47.90
2022-08-25T20:14:49.373Z,47.84
2022-08-25T20:17:24.652Z,48.46
2022-08-25T20:19:55.922Z,48.56
2022-08-25T20:22:26.819Z,49.05
2022-08-25T20:24:57.875Z,48.79
2022-08-25T20:27:32.026Z,48.65
2022-08-25T20:30:02.596Z,48.98
2022-08-25T20:32:34.874Z,49.17
2022-08-25T20:35:09.360Z,49.47
2022-08-25T20:37:41.876Z,49.77
2022-08-25T20:40:12.379Z,49.66
2022-08-25T20:42:41.238Z,50.20
2022-08-25T20:45:13.519Z,49.66
2022-08-25T20:47:44.302Z,49.69
2022-08-25T20:50:12.881Z,49.64
2022-08-25T20:52:43.873Z,50.34
2022-08-25T20:55:12.502Z,50.74
2022-08-25T20:57:40.929Z,50.64
2022-08-25T21:00:11.334Z,50.74
2022-08-25T21:02:39.575Z,50.91
2022-08-25T21:05:09.481Z,51.31
2022-08-25T21:07:37.596Z,51.31
2022-08-25T21:10:10.502Z,51.43
2022-08-25T21:12:42.738Z,50.59
2022-08-25T21:15:12.324Z,51.29
2022-08-25T21:17:40.517Z,51.06
2022-08-25T21:20:11.654Z,50.92
2022-08-25T21:22:39.906Z,50.92
2022-08-25T21:25:10.188Z,51.35
2022-08-25T21:27:38.260Z,51.15
2022-08-25T21:30:08.336Z,51.39
2022-08-25T21:32:37.453Z,51.75
2022-08-25T21:35:07.948Z,51.22
2022-08-25T21:37:37.596Z,51.57
2022-08-25T21:40:08.706Z,52.08
2022-08-25T21:42:36.976Z,51.95
2022-08-25T21:45:11.139Z,51.56
2022-08-25T21:47:42.304Z,52.53
2022-08-25T21:50:11.932Z,52.24
2022-08-25T21:52:42.418Z,52.22
2022-08-25T21:55:16.032Z,52.64
2022-08-25T21:57:44.628Z,52.49
2022-08-25T22:00:14.778Z,52.78
2022-08-25T22:02:45.852Z,52.71
2022-08-25T22:05:14.330Z,52.58
2022-08-25T22:07:45.027Z,52.46
2022-08-25T22:10:16.768Z,52.61
2022-08-25T22:12:46.290Z,53.10
2022-08-25T22:15:17.829Z,53.02
2022-08-25T22:17:48.211Z,52.75
2022-08-25T22:20:18.052Z,53.00
2022-08-25T22:22:48.162Z,52.81
2022-08-25T22:25:16.418Z,53.35
2022-08-25T22:27:44.545Z,53.57
2022-08-25T22:30:14.337Z,53.41
2022-08-25T22:32:42.710Z,53.25
2022-08-25T22:35:13.853Z,53.68
2022-08-25T22:37:42.848Z,53.56
2022-08-25T22:40:13.884Z,53.15
2022-08-25T22:42:47.396Z,53.91
2022-08-25T22:45:16.151Z,54.00
2022-08-25T22:47:45.145Z,53.48
2022-08-25T22:50:13.593Z,53.54
2022-08-25T22:52:42.376Z,53.51
2022-08-25T22:55:13.009Z,52.98
2022-08-25T22:57:41.939Z,53.17
2022-08-25T23:00:14.941Z,53.65
2022-08-25T23:02:45.505Z,53.76
2022-08-25T23:05:15.994Z,53.50
2022-08-25T23:07:44.193Z,53.85
2022-08-25T23:10:14.629Z,54.29
2022-08-25T23:12:44.042Z,54.56
2022-08-25T23:15:14.088Z,54.45
2022-08-25T23:17:42.286Z,54.73
2022-08-25T23:20:25.772Z,55.03
2022-08-25T23:22:54.481Z,55.20
2022-08-25T23:25:23.941Z,55.31
2022-08-25T23:27:52.113Z,55.52
2022-08-25T23:30:20.508Z,55.05
2022-08-25T23:32:49.763Z,55.65
2022-08-25T23:35:18.431Z,55.28
2022-08-25T23:37:48.249Z,55.34
2022-08-25T23:40:19.238Z,54.79
2022-08-25T23:42:49.151Z,54.95
2022-08-25T23:45:17.509Z,55.65
2022-08-25T23:47:45.538Z,55.38
2022-08-25T23:50:14.067Z,55.33
2022-08-25T23:52:42.144Z,55.27
2022-08-25T23:55:10.877Z,55.17
2022-08-25T23:57:39.050Z,55.46
